sensor_id;sensor_type;location;lat;lon;timestamp;pressure;altitude;pressure_sealevel;temperature;humidity
63287;BME280;49410;55.708;37.522;2022-07-23T00:01:16;99406.13;;;17.60;nan
63287;BME280;49410;55.708;37.522;2022-07-23T00:03:42;99394.44;;;17.58;nan
63287;BME280;49410;55.708;37.522;2022-07-23T00:06:08;99395.72;;;17.56;nan
63287;BME280;49410;55.708;37.522;2022-07-23T00:08:33;99398.88;;;17.59;nan
63287;BME280;49410;55.708;37.522;2022-07-23T00:10:59;99405.28;;;17.60;nan
63287;BME280;49410;55.708;37.522;2022-07-23T00:13:25;99384.94;;;17.47;nan
63287;BME280;49410;55.708;37.522;2022-07-23T00:15:51;99397.03;;;17.53;nan
63287;BME280;49410;55.708;37.522;2022-07-23T00:18:17;99392.78;;;17.50;nan
63287;BME280;49410;55.708;37.522;2022-07-23T00:20:42;99386.69;;;17.42;nan
63287;BME280;49410;55.708;37.522;2022-07-23T00:23:08;99393.03;;;17.42;nan
63287;BME280;49410;55.708;37.522;2022-07-23T00:25:33;99400.47;;;17.48;nan
63287;BME280;49410;55.708;37.522;2022-07-23T00:27:59;99390.28;;;17.42;nan
63287;BME280;49410;55.708;37.522;2022-07-23T00:30:25;99401.28;;;17.49;nan
63287;BME280;49410;55.708;37.522;2022-07-23T00:32:53;99403.91;;;17.44;nan
63287;BME280;49410;55.708;37.522;2022-07-23T00:35:20;99393.06;;;17.35;nan
63287;BME280;49410;55.708;37.522;2022-07-23T00:37:46;99390.78;;;17.32;nan
63287;BME280;49410;55.708;37.522;2022-07-23T00:40:12;99404.13;;;17.35;nan
63287;BME280;49410;55.708;37.522;2022-07-23T00:42:38;99392.72;;;17.25;nan
63287;BME280;49410;55.708;37.522;2022-07-23T00:45:04;99380.84;;;17.18;nan
63287;BME280;49410;55.708;37.522;2022-07-23T00:47:30;99393.81;;;17.24;nan
63287;BME280;49410;55.708;37.522;2022-07-23T00:49:55;99400.59;;;17.21;nan
63287;BME280;49410;55.708;37.522;2022-07-23T00:52:21;99412.47;;;17.29;nan
63287;BME280;49410;55.708;37.522;2022-07-23T00:54:48;99410.78;;;17.28;nan
63287;BME280;49410;55.708;37.522;2022-07-23T00:57:14;99398.31;;;17.18;nan
63287;BME280;49410;55.708;37.522;2022-07-23T00:59:40;99409.28;;;17.25;nan
63287;BME280;49410;55.708;37.522;2022-07-23T01:02:05;99410.59;;;17.22;nan
63287;BME280;49410;55.708;37.522;2022-07-23T01:04:31;99411.88;;;17.20;nan
63287;BME280;49410;55.708;37.522;2022-07-23T01:06:57;99405.94;;;17.16;nan
63287;BME280;49410;55.708;37.522;2022-07-23T01:09:22;99418.25;;;17.20;nan
63287;BME280;49410;55.708;37.522;2022-07-23T01:11:48;99405.09;;;17.16;nan
63287;BME280;49410;55.708;37.522;2022-07-23T01:14:18;99408.09;;;17.14;nan
63287;BME280;49410;55.708;37.522;2022-07-23T01:16:45;99413.38;;;17.16;nan
63287;BME280;49410;55.708;37.522;2022-07-23T01:19:12;99416.56;;;17.19;nan
63287;BME280;49410;55.708;37.522;2022-07-23T01:21:40;99409.38;;;17.12;nan
63287;BME280;49410;55.708;37.522;2022-07-23T01:24:06;99411.06;;;17.13;nan
63287;BME280;49410;55.708;37.522;2022-07-23T01:26:32;99402.16;;;17.11;nan
63287;BME280;49410;55.708;37.522;2022-07-23T01:28:58;99411.69;;;17.15;nan
63287;BME280;49410;55.708;37.522;2022-07-23T01:31:23;99412.78;;;17.14;nan
63287;BME280;49410;55.708;37.522;2022-07-23T01:33:49;99407.44;;;17.12;nan
63287;BME280;49410;55.708;37.522;2022-07-23T01:36:15;99396.63;;;17.11;nan
63287;BME280;49410;55.708;37.522;2022-07-23T01:38:40;99405.72;;;17.18;nan
63287;BME280;49410;55.708;37.522;2022-07-23T01:41:06;99405.53;;;17.19;nan
63287;BME280;49410;55.708;37.522;2022-07-23T01:43:31;99399.56;;;17.16;nan
63287;BME280;49410;55.708;37.522;2022-07-23T01:45:57;99387.94;;;17.07;nan
63287;BME280;49410;55.708;37.522;2022-07-23T01:48:22;99406.53;;;17.25;nan
63287;BME280;49410;55.708;37.522;2022-07-23T01:50:48;99408.63;;;17.30;nan
63287;BME280;49410;55.708;37.522;2022-07-23T01:53:14;99395.47;;;17.25;nan
63287;BME280;49410;55.708;37.522;2022-07-23T01:55:41;99398.47;;;17.23;nan
63287;BME280;49410;55.708;37.522;2022-07-23T01:58:06;99413.28;;;17.36;nan
63287;BME280;49410;55.708;37.522;2022-07-23T02:00:32;99404.59;;;17.32;nan
63287;BME280;49410;55.708;37.522;2022-07-23T02:02:57;99401.84;;;17.32;nan
63287;BME280;49410;55.708;37.522;2022-07-23T02:05:26;99406.22;;;17.40;nan
63287;BME280;49410;55.708;37.522;2022-07-23T02:07:54;99403.69;;;17.38;nan
63287;BME280;49410;55.708;37.522;2022-07-23T02:10:20;99394.78;;;17.36;nan
63287;BME280;49410;55.708;37.522;2022-07-23T02:12:46;99383.72;;;17.36;nan
63287;BME280;49410;55.708;37.522;2022-07-23T02:15:12;99398.56;;;17.42;nan
63287;BME280;49410;55.708;37.522;2022-07-23T02:17:38;99404.50;;;17.46;nan
63287;BME280;49410;55.708;37.522;2022-07-23T02:20:04;99394.31;;;17.46;nan
63287;BME280;49410;55.708;37.522;2022-07-23T02:22:30;99390.00;;;17.50;nan
63287;BME280;49410;55.708;37.522;2022-07-23T02:24:56;99393.59;;;17.58;nan
63287;BME280;49410;55.708;37.522;2022-07-23T02:27:21;99403.34;;;17.60;nan
63287;BME280;49410;55.708;37.522;2022-07-23T02:29:47;99410.72;;;17.66;nan
63287;BME280;49410;55.708;37.522;2022-07-23T02:32:12;99408.78;;;17.74;nan
63287;BME280;49410;55.708;37.522;2022-07-23T02:34:38;99410.03;;;17.78;nan
63287;BME280;49410;55.708;37.522;2022-07-23T02:37:03;99408.50;;;17.82;nan
63287;BME280;49410;55.708;37.522;2022-07-23T02:39:29;99402.53;;;17.85;nan
63287;BME280;49410;55.708;37.522;2022-07-23T02:41:55;99409.06;;;17.91;nan
63287;BME280;49410;55.708;37.522;2022-07-23T02:44:20;99398.00;;;17.91;nan
63287;BME280;49410;55.708;37.522;2022-07-23T02:46:46;99396.28;;;17.96;nan
63287;BME280;49410;55.708;37.522;2022-07-23T02:49:11;99417.25;;;18.11;nan
63287;BME280;49410;55.708;37.522;2022-07-23T02:51:37;99408.94;;;18.11;nan
63287;BME280;49410;55.708;37.522;2022-07-23T02:54:02;99407.81;;;18.19;nan
63287;BME280;49410;55.708;37.522;2022-07-23T02:56:28;99408.44;;;18.21;nan
63287;BME280;49410;55.708;37.522;2022-07-23T02:58:53;99414.91;;;18.33;nan
63287;BME280;49410;55.708;37.522;2022-07-23T03:01:19;99415.84;;;18.45;nan
63287;BME280;49410;55.708;37.522;2022-07-23T03:03:44;99411.94;;;18.53;nan
63287;BME280;49410;55.708;37.522;2022-07-23T03:06:10;99410.88;;;18.73;nan
63287;BME280;49410;55.708;37.522;2022-07-23T03:08:35;99412.13;;;18.96;nan
63287;BME280;49410;55.708;37.522;2022-07-23T03:11:01;99416.63;;;19.27;nan
63287;BME280;49410;55.708;37.522;2022-07-23T03:13:27;99421.66;;;19.49;nan
63287;BME280;49410;55.708;37.522;2022-07-23T03:15:52;99418.81;;;19.67;nan
63287;BME280;49410;55.708;37.522;2022-07-23T03:18:18;99421.16;;;19.82;nan
63287;BME280;49410;55.708;37.522;2022-07-23T03:20:43;99412.75;;;19.89;nan
63287;BME280;49410;55.708;37.522;2022-07-23T03:23:09;99416.03;;;19.98;nan
63287;BME280;49410;55.708;37.522;2022-07-23T03:25:34;99410.75;;;20.20;nan
63287;BME280;49410;55.708;37.522;2022-07-23T03:28:00;99531.13;;;20.61;nan
63287;BME280;49410;55.708;37.522;2022-07-23T03:30:25;99536.31;;;21.17;nan
63287;BME280;49410;55.708;37.522;2022-07-23T03:35:16;99529.06;;;22.10;nan
63287;BME280;49410;55.708;37.522;2022-07-23T03:37:42;99532.44;;;22.58;nan
63287;BME280;49410;55.708;37.522;2022-07-23T03:42:33;99520.69;;;23.51;nan
63287;BME280;49410;55.708;37.522;2022-07-23T03:44:58;99514.16;;;23.90;nan
63287;BME280;49410;55.708;37.522;2022-07-23T03:54:40;99514.38;;;24.71;nan
63287;BME280;49410;55.708;37.522;2022-07-23T03:57:06;99517.78;;;24.83;nan
63287;BME280;49410;55.708;37.522;2022-07-23T04:01:57;99514.25;;;25.46;nan
63287;BME280;49410;55.708;37.522;2022-07-23T04:04:22;99505.69;;;25.73;nan
63287;BME280;49410;55.708;37.522;2022-07-23T04:06:48;99514.44;;;26.03;nan
63287;BME280;49410;55.708;37.522;2022-07-23T04:14:04;99508.06;;;26.28;nan
63287;BME280;49410;55.708;37.522;2022-07-23T04:21:23;99509.44;;;26.46;nan
63287;BME280;49410;55.708;37.522;2022-07-23T04:28:39;99516.97;;;26.04;nan
63287;BME280;49410;55.708;37.522;2022-07-23T04:31:05;99516.13;;;26.04;nan
63287;BME280;49410;55.708;37.522;2022-07-23T04:35:56;99537.56;;;25.57;nan
63287;BME280;49410;55.708;37.522;2022-07-23T04:38:21;99531.03;;;25.46;nan
63287;BME280;49410;55.708;37.522;2022-07-23T04:40:47;99524.63;;;25.51;nan
63287;BME280;49410;55.708;37.522;2022-07-23T04:43:12;99523.28;;;25.58;nan
63287;BME280;49410;55.708;37.522;2022-07-23T04:50:29;99513.56;;;25.87;nan
63287;BME280;49410;55.708;37.522;2022-07-23T04:52:54;99512.75;;;26.02;nan
63287;BME280;49410;55.708;37.522;2022-07-23T04:55:20;99511.41;;;26.20;nan
63287;BME280;49410;55.708;37.522;2022-07-23T04:57:45;99501.34;;;26.50;nan
63287;BME280;49410;55.708;37.522;2022-07-23T05:02:37;99501.03;;;27.03;nan
63287;BME280;49410;55.708;37.522;2022-07-23T05:05:02;99508.47;;;27.39;nan
63287;BME280;49410;55.708;37.522;2022-07-23T05:07:28;99496.06;;;27.55;nan
63287;BME280;49410;55.708;37.522;2022-07-23T05:09:53;99479.44;;;27.69;nan
63287;BME280;49410;55.708;37.522;2022-07-23T05:14:44;99480.47;;;28.29;nan
63287;BME280;49410;55.708;37.522;2022-07-23T05:19:35;99487.47;;;28.71;nan
63287;BME280;49410;55.708;37.522;2022-07-23T05:22:01;99486.16;;;28.88;nan
63287;BME280;49410;55.708;37.522;2022-07-23T05:24:26;99480.78;;;29.16;nan
63287;BME280;49410;55.708;37.522;2022-07-23T05:26:52;99471.63;;;29.29;nan
63287;BME280;49410;55.708;37.522;2022-07-23T05:31:43;99497.00;;;29.72;nan
63287;BME280;49410;55.708;37.522;2022-07-23T05:36:34;99502.59;;;30.16;nan
63287;BME280;49410;55.708;37.522;2022-07-23T05:38:59;99489.31;;;30.35;nan
63287;BME280;49410;55.708;37.522;2022-07-23T05:41:25;99493.72;;;30.42;nan
63287;BME280;49410;55.708;37.522;2022-07-23T05:43:50;99490.44;;;30.54;nan
63287;BME280;49410;55.708;37.522;2022-07-23T05:46:16;99484.16;;;30.76;nan
63287;BME280;49410;55.708;37.522;2022-07-23T05:51:08;99479.41;;;30.57;nan
63287;BME280;49410;55.708;37.522;2022-07-23T05:53:34;99473.66;;;30.43;nan
63287;BME280;49410;55.708;37.522;2022-07-23T05:56:00;99446.09;;;30.40;nan
63287;BME280;49410;55.708;37.522;2022-07-23T05:58:26;99475.13;;;30.60;nan
63287;BME280;49410;55.708;37.522;2022-07-23T06:00:52;99467.47;;;30.60;nan
63287;BME280;49410;55.708;37.522;2022-07-23T06:03:17;99479.63;;;30.61;nan
63287;BME280;49410;55.708;37.522;2022-07-23T06:05:43;99476.28;;;30.73;nan
63287;BME280;49410;55.708;37.522;2022-07-23T06:08:08;99482.84;;;30.35;nan
63287;BME280;49410;55.708;37.522;2022-07-23T06:12:59;99484.09;;;30.10;nan
63287;BME280;49410;55.708;37.522;2022-07-23T06:15:25;99375.84;;;30.11;nan
63287;BME280;49410;55.708;37.522;2022-07-23T06:17:50;99481.31;;;30.24;nan
63287;BME280;49410;55.708;37.522;2022-07-23T06:22:41;99482.94;;;30.30;nan
63287;BME280;49410;55.708;37.522;2022-07-23T06:25:07;99373.38;;;30.23;nan
63287;BME280;49410;55.708;37.522;2022-07-23T06:27:33;99375.63;;;30.07;nan
63287;BME280;49410;55.708;37.522;2022-07-23T06:29:58;99376.63;;;29.97;nan
63287;BME280;49410;55.708;37.522;2022-07-23T06:32:24;99376.91;;;29.77;nan
63287;BME280;49410;55.708;37.522;2022-07-23T06:34:49;99377.50;;;29.93;nan
63287;BME280;49410;55.708;37.522;2022-07-23T06:37:16;99369.94;;;29.74;nan
63287;BME280;49410;55.708;37.522;2022-07-23T06:39:41;99366.66;;;29.48;nan
63287;BME280;49410;55.708;37.522;2022-07-23T06:42:07;99368.06;;;29.26;nan
63287;BME280;49410;55.708;37.522;2022-07-23T06:44:32;99361.28;;;29.08;nan
63287;BME280;49410;55.708;37.522;2022-07-23T06:46:58;99370.28;;;29.10;nan
63287;BME280;49410;55.708;37.522;2022-07-23T06:49:23;99374.03;;;29.00;nan
63287;BME280;49410;55.708;37.522;2022-07-23T06:51:49;99373.09;;;28.86;nan
63287;BME280;49410;55.708;37.522;2022-07-23T06:54:15;99376.09;;;28.94;nan
63287;BME280;49410;55.708;37.522;2022-07-23T06:56:40;99371.59;;;28.93;nan
63287;BME280;49410;55.708;37.522;2022-07-23T06:59:06;99367.78;;;28.84;nan
63287;BME280;49410;55.708;37.522;2022-07-23T07:01:32;99372.81;;;28.87;nan
63287;BME280;49410;55.708;37.522;2022-07-23T07:03:57;99368.75;;;28.74;nan
63287;BME280;49410;55.708;37.522;2022-07-23T07:06:23;99354.38;;;28.71;nan
63287;BME280;49410;55.708;37.522;2022-07-23T07:08:48;99366.75;;;28.75;nan
63287;BME280;49410;55.708;37.522;2022-07-23T07:11:14;99367.63;;;28.70;nan
63287;BME280;49410;55.708;37.522;2022-07-23T07:13:39;99372.78;;;28.63;nan
63287;BME280;49410;55.708;37.522;2022-07-23T07:16:05;99359.44;;;28.74;nan
63287;BME280;49410;55.708;37.522;2022-07-23T07:18:30;99369.69;;;28.89;nan
63287;BME280;49410;55.708;37.522;2022-07-23T07:20:57;99363.38;;;28.97;nan
63287;BME280;49410;55.708;37.522;2022-07-23T07:23:23;99360.00;;;28.71;nan
63287;BME280;49410;55.708;37.522;2022-07-23T07:25:48;99363.59;;;28.52;nan
63287;BME280;49410;55.708;37.522;2022-07-23T07:28:14;99358.63;;;28.44;nan
63287;BME280;49410;55.708;37.522;2022-07-23T07:30:39;99363.06;;;28.50;nan
63287;BME280;49410;55.708;37.522;2022-07-23T07:33:06;99363.13;;;28.74;nan
63287;BME280;49410;55.708;37.522;2022-07-23T07:35:31;99366.28;;;28.92;nan
63287;BME280;49410;55.708;37.522;2022-07-23T07:37:58;99367.97;;;28.93;nan
63287;BME280;49410;55.708;37.522;2022-07-23T07:40:24;99365.00;;;29.03;nan
63287;BME280;49410;55.708;37.522;2022-07-23T07:42:51;99367.97;;;28.93;nan
63287;BME280;49410;55.708;37.522;2022-07-23T07:45:20;99364.50;;;28.77;nan
63287;BME280;49410;55.708;37.522;2022-07-23T07:47:46;99377.22;;;28.93;nan
63287;BME280;49410;55.708;37.522;2022-07-23T07:50:11;99375.63;;;28.87;nan
63287;BME280;49410;55.708;37.522;2022-07-23T07:52:37;99362.03;;;28.65;nan
63287;BME280;49410;55.708;37.522;2022-07-23T07:55:04;99371.91;;;28.62;nan
63287;BME280;49410;55.708;37.522;2022-07-23T07:57:30;99367.66;;;28.65;nan
63287;BME280;49410;55.708;37.522;2022-07-23T07:59:55;99352.06;;;28.54;nan
63287;BME280;49410;55.708;37.522;2022-07-23T08:02:21;99366.03;;;28.64;nan
63287;BME280;49410;55.708;37.522;2022-07-23T08:04:46;99364.38;;;28.87;nan
63287;BME280;49410;55.708;37.522;2022-07-23T08:07:12;99360.31;;;28.74;nan
63287;BME280;49410;55.708;37.522;2022-07-23T08:09:38;99367.06;;;28.73;nan
63287;BME280;49410;55.708;37.522;2022-07-23T08:12:03;99367.34;;;28.96;nan
63287;BME280;49410;55.708;37.522;2022-07-23T08:14:29;99361.56;;;29.06;nan
63287;BME280;49410;55.708;37.522;2022-07-23T08:16:54;99361.50;;;28.39;nan
63287;BME280;49410;55.708;37.522;2022-07-23T08:19:20;99358.19;;;28.31;nan
63287;BME280;49410;55.708;37.522;2022-07-23T08:21:45;99358.72;;;28.33;nan
63287;BME280;49410;55.708;37.522;2022-07-23T08:24:11;99365.19;;;28.34;nan
63287;BME280;49410;55.708;37.522;2022-07-23T08:26:39;99367.31;;;28.47;nan
63287;BME280;49410;55.708;37.522;2022-07-23T08:29:06;99363.13;;;28.69;nan
63287;BME280;49410;55.708;37.522;2022-07-23T08:31:31;99360.94;;;28.90;nan
63287;BME280;49410;55.708;37.522;2022-07-23T08:34:01;99350.56;;;29.10;nan
63287;BME280;49410;55.708;37.522;2022-07-23T08:36:28;99349.19;;;29.07;nan
63287;BME280;49410;55.708;37.522;2022-07-23T08:38:58;99358.03;;;29.20;nan
63287;BME280;49410;55.708;37.522;2022-07-23T08:41:24;99342.72;;;29.26;nan
63287;BME280;49410;55.708;37.522;2022-07-23T08:43:50;99346.31;;;29.32;nan
63287;BME280;49410;55.708;37.522;2022-07-23T08:46:16;99337.63;;;29.33;nan
63287;BME280;49410;55.708;37.522;2022-07-23T08:48:47;99340.22;;;29.24;nan
63287;BME280;49410;55.708;37.522;2022-07-23T08:51:13;99338.19;;;28.87;nan
63287;BME280;49410;55.708;37.522;2022-07-23T08:53:39;99347.94;;;28.70;nan
63287;BME280;49410;55.708;37.522;2022-07-23T08:56:06;99348.66;;;28.57;nan
63287;BME280;49410;55.708;37.522;2022-07-23T08:58:32;99353.13;;;28.58;nan
63287;BME280;49410;55.708;37.522;2022-07-23T09:00:58;99347.75;;;28.61;nan
63287;BME280;49410;55.708;37.522;2022-07-23T09:03:35;99342.88;;;28.72;nan
63287;BME280;49410;55.708;37.522;2022-07-23T09:06:01;99341.22;;;28.71;nan
63287;BME280;49410;55.708;37.522;2022-07-23T09:08:41;99346.59;;;28.92;nan
63287;BME280;49410;55.708;37.522;2022-07-23T09:11:17;99339.16;;;29.01;nan
63287;BME280;49410;55.708;37.522;2022-07-23T09:13:51;99337.31;;;29.10;nan
63287;BME280;49410;55.708;37.522;2022-07-23T09:16:25;99338.13;;;28.92;nan
63287;BME280;49410;55.708;37.522;2022-07-23T09:18:58;99334.56;;;28.86;nan
63287;BME280;49410;55.708;37.522;2022-07-23T09:21:37;99323.88;;;28.59;nan
63287;BME280;49410;55.708;37.522;2022-07-23T09:24:07;99340.31;;;28.76;nan
63287;BME280;49410;55.708;37.522;2022-07-23T09:32:02;99330.34;;;29.08;nan
63287;BME280;49410;55.708;37.522;2022-07-23T09:34:34;99323.53;;;28.90;nan
63287;BME280;49410;55.708;37.522;2022-07-23T09:37:17;99331.53;;;29.02;nan
63287;BME280;49410;55.708;37.522;2022-07-23T09:39:45;99330.47;;;28.97;nan
63287;BME280;49410;55.708;37.522;2022-07-23T09:42:23;99334.34;;;29.02;nan
63287;BME280;49410;55.708;37.522;2022-07-23T09:44:52;99318.75;;;29.09;nan
63287;BME280;49410;55.708;37.522;2022-07-23T09:47:19;99321.28;;;29.30;nan
63287;BME280;49410;55.708;37.522;2022-07-23T09:50:10;99307.41;;;29.39;nan
63287;BME280;49410;55.708;37.522;2022-07-23T09:52:47;99315.91;;;29.53;nan
63287;BME280;49410;55.708;37.522;2022-07-23T09:55:14;99315.38;;;29.70;nan
63287;BME280;49410;55.708;37.522;2022-07-23T09:57:41;99315.66;;;29.68;nan
63287;BME280;49410;55.708;37.522;2022-07-23T10:00:08;99314.78;;;29.54;nan
63287;BME280;49410;55.708;37.522;2022-07-23T10:02:36;99316.50;;;29.69;nan
63287;BME280;49410;55.708;37.522;2022-07-23T10:05:02;99313.00;;;29.58;nan
63287;BME280;49410;55.708;37.522;2022-07-23T10:07:31;99305.63;;;29.43;nan
63287;BME280;49410;55.708;37.522;2022-07-23T10:09:59;99305.63;;;29.24;nan
63287;BME280;49410;55.708;37.522;2022-07-23T10:12:25;99310.00;;;29.11;nan
63287;BME280;49410;55.708;37.522;2022-07-23T10:15:24;99300.44;;;29.12;nan
63287;BME280;49410;55.708;37.522;2022-07-23T10:17:51;99297.31;;;28.94;nan
63287;BME280;49410;55.708;37.522;2022-07-23T10:20:16;99297.91;;;28.91;nan
63287;BME280;49410;55.708;37.522;2022-07-23T10:22:59;99302.53;;;28.82;nan
63287;BME280;49410;55.708;37.522;2022-07-23T10:25:37;99300.44;;;28.69;nan
63287;BME280;49410;55.708;37.522;2022-07-23T10:28:26;99294.63;;;28.60;nan
63287;BME280;49410;55.708;37.522;2022-07-23T10:36:42;99300.28;;;28.55;nan
63287;BME280;49410;55.708;37.522;2022-07-23T10:41:47;99290.81;;;28.75;nan
63287;BME280;49410;55.708;37.522;2022-07-23T10:44:19;99284.69;;;28.92;nan
63287;BME280;49410;55.708;37.522;2022-07-23T10:47:02;99276.09;;;29.02;nan
63287;BME280;49410;55.708;37.522;2022-07-23T10:49:33;99273.81;;;29.23;nan
63287;BME280;49410;55.708;37.522;2022-07-23T10:57:07;99263.41;;;29.43;nan
63287;BME280;49410;55.708;37.522;2022-07-23T11:02:29;99255.50;;;29.45;nan
63287;BME280;49410;55.708;37.522;2022-07-23T11:05:00;99244.38;;;29.54;nan
63287;BME280;49410;55.708;37.522;2022-07-23T11:07:26;99263.28;;;29.67;nan
63287;BME280;49410;55.708;37.522;2022-07-23T11:09:52;99253.16;;;29.66;nan
63287;BME280;49410;55.708;37.522;2022-07-23T11:18:08;99257.69;;;29.48;nan
63287;BME280;49410;55.708;37.522;2022-07-23T11:20:34;99247.44;;;29.38;nan
63287;BME280;49410;55.708;37.522;2022-07-23T11:22:59;99238.91;;;29.24;nan
63287;BME280;49410;55.708;37.522;2022-07-23T11:27:51;99247.94;;;29.21;nan
63287;BME280;49410;55.708;37.522;2022-07-23T11:35:34;99241.03;;;29.33;nan
63287;BME280;49410;55.708;37.522;2022-07-23T11:38:23;99241.41;;;29.45;nan
63287;BME280;49410;55.708;37.522;2022-07-23T11:40:54;99248.22;;;29.58;nan
63287;BME280;49410;55.708;37.522;2022-07-23T11:43:20;99246.81;;;29.61;nan
63287;BME280;49410;55.708;37.522;2022-07-23T11:45:49;99242.63;;;29.20;nan
63287;BME280;49410;55.708;37.522;2022-07-23T11:48:20;99250.31;;;29.14;nan
63287;BME280;49410;55.708;37.522;2022-07-23T11:50:46;99236.34;;;29.09;nan
63287;BME280;49410;55.708;37.522;2022-07-23T11:53:12;99233.91;;;29.02;nan
63287;BME280;49410;55.708;37.522;2022-07-23T11:55:38;99238.38;;;29.03;nan
63287;BME280;49410;55.708;37.522;2022-07-23T11:58:04;99231.75;;;28.75;nan
63287;BME280;49410;55.708;37.522;2022-07-23T12:00:31;99235.91;;;28.58;nan
63287;BME280;49410;55.708;37.522;2022-07-23T12:03:02;99229.13;;;28.35;nan
63287;BME280;49410;55.708;37.522;2022-07-23T12:05:31;99236.94;;;28.43;nan
63287;BME280;49410;55.708;37.522;2022-07-23T12:07:58;99236.06;;;28.43;nan
63287;BME280;49410;55.708;37.522;2022-07-23T12:10:25;99236.78;;;28.54;nan
63287;BME280;49410;55.708;37.522;2022-07-23T12:12:57;99215.19;;;28.49;nan
63287;BME280;49410;55.708;37.522;2022-07-23T12:17:51;99216.81;;;28.55;nan
63287;BME280;49410;55.708;37.522;2022-07-23T12:20:25;99217.41;;;28.52;nan
63287;BME280;49410;55.708;37.522;2022-07-23T12:22:55;99182.66;;;28.43;nan
63287;BME280;49410;55.708;37.522;2022-07-23T12:25:23;99202.50;;;28.51;nan
63287;BME280;49410;55.708;37.522;2022-07-23T12:28:26;99215.19;;;28.49;nan
63287;BME280;49410;55.708;37.522;2022-07-23T12:30:53;99215.34;;;28.58;nan
63287;BME280;49410;55.708;37.522;2022-07-23T12:33:33;99204.31;;;28.42;nan
63287;BME280;49410;55.708;37.522;2022-07-23T12:36:02;99202.56;;;28.46;nan
63287;BME280;49410;55.708;37.522;2022-07-23T12:38:40;99208.72;;;28.48;nan
63287;BME280;49410;55.708;37.522;2022-07-23T12:41:06;99193.47;;;28.55;nan
63287;BME280;49410;55.708;37.522;2022-07-23T12:43:35;99200.47;;;28.57;nan
63287;BME280;49410;55.708;37.522;2022-07-23T12:46:08;99204.19;;;28.52;nan
63287;BME280;49410;55.708;37.522;2022-07-23T12:48:36;99188.59;;;28.41;nan
63287;BME280;49410;55.708;37.522;2022-07-23T12:51:15;99200.97;;;28.40;nan
63287;BME280;49410;55.708;37.522;2022-07-23T12:53:45;99195.94;;;28.37;nan
63287;BME280;49410;55.708;37.522;2022-07-23T12:56:15;99184.69;;;28.37;nan
63287;BME280;49410;55.708;37.522;2022-07-23T12:58:49;99183.69;;;28.28;nan
63287;BME280;49410;55.708;37.522;2022-07-23T13:04:20;99185.16;;;28.25;nan
63287;BME280;49410;55.708;37.522;2022-07-23T13:06:49;99192.44;;;28.26;nan
63287;BME280;49410;55.708;37.522;2022-07-23T13:09:18;99192.97;;;28.28;nan
63287;BME280;49410;55.708;37.522;2022-07-23T13:11:44;99191.03;;;28.24;nan
63287;BME280;49410;55.708;37.522;2022-07-23T13:14:10;99197.44;;;28.29;nan
63287;BME280;49410;55.708;37.522;2022-07-23T13:16:36;99192.84;;;28.39;nan
63287;BME280;49410;55.708;37.522;2022-07-23T13:19:02;99181.34;;;28.35;nan
63287;BME280;49410;55.708;37.522;2022-07-23T13:21:28;99182.06;;;28.46;nan
63287;BME280;49410;55.708;37.522;2022-07-23T13:23:55;99172.50;;;28.47;nan
63287;BME280;49410;55.708;37.522;2022-07-23T13:26:22;99176.22;;;28.61;nan
63287;BME280;49410;55.708;37.522;2022-07-23T13:28:47;99183.25;;;28.64;nan
63287;BME280;49410;55.708;37.522;2022-07-23T13:31:13;99176.88;;;28.77;nan
63287;BME280;49410;55.708;37.522;2022-07-23T13:33:39;99177.50;;;28.74;nan
63287;BME280;49410;55.708;37.522;2022-07-23T13:36:05;99174.53;;;28.60;nan
63287;BME280;49410;55.708;37.522;2022-07-23T13:38:31;99161.78;;;28.68;nan
63287;BME280;49410;55.708;37.522;2022-07-23T13:40:56;99178.84;;;28.77;nan
63287;BME280;49410;55.708;37.522;2022-07-23T13:43:23;99172.97;;;28.92;nan
63287;BME280;49410;55.708;37.522;2022-07-23T13:45:50;99156.97;;;28.93;nan
63287;BME280;49410;55.708;37.522;2022-07-23T13:48:17;99143.19;;;28.91;nan
63287;BME280;49410;55.708;37.522;2022-07-23T13:50:43;99161.34;;;28.99;nan
63287;BME280;49410;55.708;37.522;2022-07-23T13:53:15;99144.78;;;28.97;nan
63287;BME280;49410;55.708;37.522;2022-07-23T13:55:41;99148.50;;;28.93;nan
63287;BME280;49410;55.708;37.522;2022-07-23T13:58:08;99157.63;;;28.85;nan
63287;BME280;49410;55.708;37.522;2022-07-23T14:00:37;99167.59;;;28.77;nan
63287;BME280;49410;55.708;37.522;2022-07-23T14:03:03;99160.97;;;28.67;nan
63287;BME280;49410;55.708;37.522;2022-07-23T14:05:29;99151.66;;;28.67;nan
63287;BME280;49410;55.708;37.522;2022-07-23T14:07:55;99155.50;;;28.57;nan
63287;BME280;49410;55.708;37.522;2022-07-23T14:10:22;99129.41;;;28.32;nan
63287;BME280;49410;55.708;37.522;2022-07-23T14:12:48;99145.97;;;28.53;nan
63287;BME280;49410;55.708;37.522;2022-07-23T14:15:14;99155.41;;;28.62;nan
63287;BME280;49410;55.708;37.522;2022-07-23T14:17:42;99147.47;;;28.45;nan
63287;BME280;49410;55.708;37.522;2022-07-23T14:20:08;99156.41;;;28.52;nan
63287;BME280;49410;55.708;37.522;2022-07-23T14:22:35;99164.06;;;28.47;nan
63287;BME280;49410;55.708;37.522;2022-07-23T14:25:02;99154.72;;;28.51;nan
63287;BME280;49410;55.708;37.522;2022-07-23T14:27:28;99153.66;;;28.47;nan
63287;BME280;49410;55.708;37.522;2022-07-23T14:29:54;99148.78;;;28.53;nan
63287;BME280;49410;55.708;37.522;2022-07-23T14:32:20;99149.25;;;28.60;nan
63287;BME280;49410;55.708;37.522;2022-07-23T14:34:46;99154.25;;;28.63;nan
63287;BME280;49410;55.708;37.522;2022-07-23T14:37:12;99139.97;;;28.60;nan
63287;BME280;49410;55.708;37.522;2022-07-23T14:39:41;99144.84;;;28.54;nan
63287;BME280;49410;55.708;37.522;2022-07-23T14:42:07;99147.88;;;28.58;nan
63287;BME280;49410;55.708;37.522;2022-07-23T14:44:34;99122.94;;;28.51;nan
63287;BME280;49410;55.708;37.522;2022-07-23T14:47:01;99137.75;;;28.57;nan